Canehill, Arkansas
Current Conditions -  °F | °C
As of 11:53 AM on Saturday 20 Dec 2014 (Local Time) from KFYV Reporting Station
Overcast Overcast  
Wind Chill: 38°   Ceiling: 2000
Heat Index: 42°   Visibility: 10mi
Dew Point: 37°   Wind: 6mph
Humidity: 82%   Direction: 190°S
Pressure: 30.22"   Gusts: NA
Location:  35.91°N, 94.4°W
Report Text: KFYV 201753Z 19005KT 10SM OVC020 06/03 A3022 RMK AO2 SLP236 T00560028 10061 20039 58006 $
Loading
Personal Weather Stations






























Interactive Weather Map New forecast layout! Learn more

10-Day Weather Forecast

Advertisements
Track Severe Weather on mobile